Accueil
METAR-TAF:

METAR-TAF

Aéroports :

Aéroport de Klagenfurt

Klagenfurt, Autriche

latitude: 46-39N, longitude: 014-20E, altitude: 448 m

Observation

Le bulletin a été fait il y a 46 minutes, à 15:20 UTC
Vent 3 kt de est, variant entre nord-est et sud-est
Température 20°C
Humidité 60%
Pression 1016 hPa
Visibilité 10 km ou plus
pas de nuages en-dessous de 1500 mètres et pas de cumulonimbus.

METAR: LOWK 141520Z AUTO 09003KT 050V130 CAVOK 20/12 Q1016 NOSIG

Heure: 18:06 (16:06 UTC)

Prévision

Le bulletin a été fait il y a 4 heures et 51 minutes, à 11:15 UTC
Prévision valable du 14 à 12 UTC au 15 à 12 UTC
Vent 3 kt de direction variable
Visibilité 10 km ou plus
pas de nuages en-dessous de 1500 mètres et pas de cumulonimbus.
Probabilité 30% :
Temporairement
du 15 à 01 UTC au 15 à 08 UTC
Nuages fragmentés à une hauteur de 800 ft

TAF: LOWK 141115Z 1412/1512 VRB03KT CAVOK TX23/1512Z TN11/1503Z PROB30 TEMPO 1501/1508 BKN008

Observations et prévisions météorologiques de plus de 4000 aéroports (messages METAR et TAF).

Les stations disponibles sont représentées par des disques jaunes et rouges sur la carte.

Passer la souris dessus pour voir le nom de la station.

Cliquer dessus pour voir les observations et prévisions météorologiques.

Pour changer de carte: cliquez sur les boutons verts avec une croix noire pour zoomer, sur le bouton vert avec un tiret pour effectuer un zoom arrière, ou sur les flèches vertes pour les cartes adjacentes.


METAR-TAF: